Terminal Aerodrome Forecast
Issued by NWS

Home | Current Version | Previous Version | Text Only | Print | Product List | Glossary Off
Versions: 1 2 3 4 5 6 7 8 9 10 11 12 13 14 15 16

299
FTUS43 KICT 200058 AAA
TAFCNU
TAF AMD
KCNU 200058Z 2001/2024 15013KT P6SM SKC
     FM200300 17017KT P6SM SKC WS020/19048KT
     FM201100 18017KT P6SM SCT025 WS020/19048KT
     FM201500 19017G22KT P6SM SCT025=

USA.gov is the U.S. government's official web portal to all federal, state and local government web resources and services.